La Grande, WA (98348)

10:31 PM PDT on April 30, 2017 (GMT -0700)
Triangle Marsh | | Change Station

Elev 757 ft 46.86 °N, 122.29 °W | Updated 16 seconds ago

Overcast
Overcast
41.5 °F
Feels Like 42 °F
N
0.0
Wind Variable Wind from North
Gusts 0.0 mph

Today
High -- | Low -- °F
--% Chance of Precip.
Yesterday
High -- | Low -- °F
Precip. -- in
Pressure 30.38 in
Visibility 7.0 miles
Clouds Mostly Cloudy 5000 ft
Windchill 42 °F
Dew Point 36 °F
Humidity 80%
Rainfall 0.02 in
Snow Depth Not available.
5:55 AM 8:18 PM
Waxing Crescent, 29% visible
METAR KGRF 010455Z 20005KT 7SM BKN050 09/03 A3037 RMK AO2A SLP287 WND DATA ESTMD ALSTG/SLP ESTMD T00900035
Pressure 30.38 in
Visibility 7.0 miles
Clouds Mostly Cloudy 5000 ft
Windchill 42 °F
Dew Point 36 °F
Humidity 80%
Rainfall 0.02 in
Snow Depth Not available.
5:55 AM 8:18 PM
Waxing Crescent, 29% visible
METAR KGRF 010455Z 20005KT 7SM BKN050 09/03 A3037 RMK AO2A SLP287 WND DATA ESTMD ALSTG/SLP ESTMD T00900035

Get Severe Weather Alerts

Thanks for signing up!

Be on the lookout for a verification email in your inbox.

You'll start receiving the daily forecast at 8 AM.

×

10-Day Weather Forecast

Almanac

Astronomy

Apr. 30, 2017 Rise Set
Actual Time
Civil Twilight
Nautical Twilight
Astronomical Twilight
Moon
Length of Visible Light
Length of Day
Tomorrow will be .
, % of the Moon is Illuminated

Today's Extremes

State Highs State Lows

Community

WunderPhotos

WunderBlog® & News

Nearby

Air Quality

  Air Quality AQ Index Pollutant
Not available.

Snow Depth

Station Depth Elevation

Earthquake Activity

City Distance Mag. Time & Date
Minimum magnitude displayed is 2.5.

Coastal Water Temperatures

Place Temperature

Stations

Nearby Weather Stations

Station Location Temp. Windchill Dew Point Humidity Wind Precip. Elev Updated Type
                   

Watches & Warnings

There are currently no watches in effect.